createdAt,value
2023-01-20T00:04:11.429Z,-0.56
2023-01-20T00:09:17.447Z,-0.60
2023-01-20T00:14:19.059Z,-0.52
2023-01-20T00:19:23.228Z,-0.52
2023-01-20T00:24:25.141Z,-0.58
2023-01-20T00:29:26.894Z,-0.59
2023-01-20T00:34:28.640Z,-0.64
2023-01-20T00:39:30.322Z,-0.65
2023-01-20T00:44:32.175Z,-0.72
2023-01-20T00:49:33.836Z,-0.82
2023-01-20T00:54:35.678Z,-0.84
2023-01-20T00:59:37.560Z,-0.91
2023-01-20T01:04:39.203Z,-0.92
2023-01-20T01:09:40.873Z,-0.93
2023-01-20T01:14:42.498Z,-1.01
2023-01-20T01:19:44.107Z,-1.11
2023-01-20T01:24:45.710Z,-1.08
2023-01-20T01:29:47.371Z,-1.11
2023-01-20T01:34:48.992Z,-1.15
2023-01-20T01:39:50.716Z,-1.23
2023-01-20T01:45:10.803Z,-1.36
2023-01-20T01:50:20.509Z,-1.42
2023-01-20T01:55:27.477Z,-1.43
2023-01-20T02:00:29.675Z,-1.39
2023-01-20T02:05:32.295Z,-1.40
2023-01-20T02:10:34.067Z,-1.42
2023-01-20T02:15:58.673Z,-1.38
2023-01-20T02:21:37.579Z,-1.41
2023-01-20T02:26:53.356Z,-1.40
2023-01-20T02:32:19.213Z,-1.42
2023-01-20T02:37:28.634Z,-1.47
2023-01-20T02:42:48.851Z,-1.47
2023-01-20T02:48:12.584Z,-1.52
2023-01-20T02:53:16.867Z,-1.60
2023-01-20T02:58:52.775Z,-1.58
2023-01-20T03:03:58.426Z,-1.57
2023-01-20T03:09:02.363Z,-1.54
2023-01-20T03:14:13.734Z,-1.54
2023-01-20T03:19:20.205Z,-1.59
2023-01-20T03:24:23.205Z,-1.58
2023-01-20T03:29:24.920Z,-1.61
2023-01-20T03:34:30.039Z,-1.57
2023-01-20T03:39:32.711Z,-1.58
2023-01-20T03:45:09.441Z,-1.55
2023-01-20T03:50:47.907Z,-1.60
2023-01-20T03:56:02.560Z,-1.65
2023-01-20T04:01:18.439Z,-1.59
2023-01-20T04:06:24.958Z,-1.59
2023-01-20T04:11:27.909Z,-1.65
2023-01-20T04:16:29.772Z,-1.62
2023-01-20T04:21:39.332Z,-1.55
2023-01-20T04:26:41.157Z,-1.52
2023-01-20T04:31:42.869Z,-1.54
2023-01-20T04:36:44.717Z,-1.56
2023-01-20T04:41:47.441Z,-1.56
2023-01-20T04:46:49.289Z,-1.55
2023-01-20T04:51:50.905Z,-1.53
2023-01-20T04:56:52.491Z,-1.47
2023-01-20T05:01:54.477Z,-1.52
2023-01-20T05:06:56.399Z,-1.49
2023-01-20T05:11:58.067Z,-1.46
2023-01-20T05:16:59.811Z,-1.46
2023-01-20T05:22:02.367Z,-1.48
2023-01-20T05:27:04.092Z,-1.42
2023-01-20T05:32:05.722Z,-1.47
2023-01-20T05:37:07.385Z,-1.43
2023-01-20T05:42:09.037Z,-1.42
2023-01-20T05:47:10.691Z,-1.44
2023-01-20T05:52:12.387Z,-1.43
2023-01-20T05:57:18.162Z,-1.38
2023-01-20T06:02:20.320Z,-1.32
2023-01-20T06:07:22.018Z,-1.37
2023-01-20T06:12:23.897Z,-1.35
2023-01-20T06:17:25.640Z,-1.27
2023-01-20T06:22:27.660Z,-1.24
2023-01-20T06:27:29.257Z,-1.20
2023-01-20T06:32:30.856Z,-1.14
2023-01-20T06:37:32.674Z,-1.12
2023-01-20T06:42:34.304Z,-1.10
2023-01-20T06:47:36.250Z,-1.11
2023-01-20T06:52:37.845Z,-1.08
2023-01-20T06:57:39.431Z,-1.13
2023-01-20T07:02:41.313Z,-1.11
2023-01-20T07:07:46.037Z,-0.98
2023-01-20T07:12:47.677Z,-0.98
2023-01-20T07:17:49.288Z,-0.90
2023-01-20T07:22:50.917Z,-0.89
2023-01-20T07:27:53.171Z,-0.73
2023-01-20T07:32:54.768Z,-0.72
2023-01-20T07:37:56.619Z,-0.64
2023-01-20T07:42:58.242Z,-0.63
2023-01-20T07:48:00.140Z,-0.52
2023-01-20T07:53:02.019Z,-0.55
2023-01-20T07:58:03.640Z,-0.52
2023-01-20T08:03:05.297Z,-0.44
2023-01-20T08:08:07.203Z,-0.40
2023-01-20T08:13:09.217Z,-0.32
2023-01-20T08:18:11.067Z,-0.26
2023-01-20T08:23:13.014Z,-0.20
2023-01-20T08:28:14.728Z,-0.17
2023-01-20T08:33:16.322Z,-0.07
2023-01-20T08:38:18.167Z,0.05
2023-01-20T08:43:19.783Z,0.08
2023-01-20T08:48:21.510Z,0.14
2023-01-20T08:53:23.137Z,0.26
2023-01-20T08:58:25.588Z,0.25
2023-01-20T09:03:27.519Z,0.12
2023-01-20T09:08:29.655Z,0.32
2023-01-20T09:13:31.425Z,0.36
2023-01-20T09:18:34.578Z,0.35
2023-01-20T09:23:39.075Z,0.46
2023-01-20T09:28:44.525Z,0.64
2023-01-20T09:33:46.127Z,0.61
2023-01-20T09:39:06.280Z,0.74
2023-01-20T09:44:42.413Z,0.76
2023-01-20T09:50:09.885Z,0.85
2023-01-20T09:55:21.566Z,0.83
2023-01-20T10:00:26.187Z,1.01
2023-01-20T10:05:35.652Z,1.10
2023-01-20T10:10:44.146Z,1.26
2023-01-20T10:15:54.216Z,1.09
2023-01-20T10:20:58.720Z,1.25
2023-01-20T10:26:17.095Z,1.27
2023-01-20T10:31:27.843Z,1.37
2023-01-20T10:36:30.950Z,1.41
2023-01-20T10:41:45.638Z,1.45
2023-01-20T10:47:13.629Z,1.54
2023-01-20T10:52:46.661Z,1.68
2023-01-20T10:57:54.678Z,1.77
2023-01-20T11:03:00.058Z,1.89
2023-01-20T11:08:03.624Z,2.07
2023-01-20T11:13:05.529Z,2.10
2023-01-20T11:18:16.584Z,2.14
2023-01-20T11:23:42.088Z,2.29
2023-01-20T11:28:50.746Z,2.35
2023-01-20T11:33:56.684Z,2.44
2023-01-20T11:38:58.355Z,2.46
2023-01-20T11:44:00.870Z,2.47
2023-01-20T11:49:22.033Z,2.38
2023-01-20T11:54:26.202Z,2.40
2023-01-20T11:59:30.353Z,2.45
2023-01-20T12:04:50.807Z,2.33
2023-01-20T12:09:59.362Z,2.37
2023-01-20T12:15:10.718Z,2.40
2023-01-20T12:20:24.221Z,2.41
2023-01-20T12:25:30.605Z,2.37
2023-01-20T12:30:41.309Z,2.42
2023-01-20T12:36:00.958Z,2.33
2023-01-20T12:41:13.629Z,2.44
2023-01-20T12:46:18.170Z,2.33
2023-01-20T12:52:05.654Z,2.46
2023-01-20T12:57:19.589Z,2.33
2023-01-20T13:02:24.145Z,2.21
2023-01-20T13:07:48.344Z,2.29
2023-01-20T13:13:03.953Z,2.20
2023-01-20T13:18:17.835Z,2.14
2023-01-20T13:23:36.903Z,2.13
2023-01-20T13:28:38.451Z,2.16
2023-01-20T13:33:41.819Z,2.11
2023-01-20T13:38:44.548Z,2.13
2023-01-20T13:43:48.283Z,2.14
2023-01-20T13:49:20.966Z,2.14
2023-01-20T13:54:25.450Z,2.22
2023-01-20T13:59:27.246Z,2.22
2023-01-20T14:04:28.891Z,2.25
2023-01-20T14:09:30.493Z,2.30
2023-01-20T14:14:32.300Z,2.23
2023-01-20T14:19:37.262Z,2.24
2023-01-20T14:24:47.878Z,2.11
2023-01-20T14:29:52.277Z,2.21
2023-01-20T14:34:54.878Z,2.28
2023-01-20T14:39:59.458Z,2.13
2023-01-20T14:45:01.157Z,2.18
2023-01-20T14:50:03.029Z,2.11
2023-01-20T14:55:05.110Z,2.12
2023-01-20T15:00:19.258Z,2.12
2023-01-20T15:05:31.854Z,2.03
2023-01-20T15:10:33.722Z,2.02
2023-01-20T15:15:35.414Z,2.08
2023-01-20T15:20:43.987Z,2.00
2023-01-20T15:25:46.132Z,2.04
2023-01-20T15:30:47.823Z,1.88
2023-01-20T15:36:00.649Z,1.90
2023-01-20T15:41:02.305Z,1.86
2023-01-20T15:46:10.821Z,1.90
2023-01-20T15:51:15.141Z,1.86
2023-01-20T15:56:25.198Z,1.91
2023-01-20T16:01:29.037Z,1.87
2023-01-20T16:06:33.263Z,1.87
2023-01-20T16:11:35.119Z,1.90
2023-01-20T16:16:37.008Z,1.87
2023-01-20T16:21:38.808Z,1.87
2023-01-20T16:26:42.947Z,1.93
2023-01-20T16:31:44.682Z,1.92
2023-01-20T16:36:46.313Z,1.96
2023-01-20T16:41:49.855Z,1.93
2023-01-20T16:46:51.506Z,1.92
2023-01-20T16:51:53.123Z,1.90
2023-01-20T16:56:54.713Z,1.93
2023-01-20T17:01:56.411Z,1.92
2023-01-20T17:06:58.051Z,1.95
2023-01-20T17:11:59.692Z,1.95
2023-01-20T17:17:01.353Z,1.92
2023-01-20T17:22:03.036Z,1.92
2023-01-20T17:27:04.698Z,1.97
2023-01-20T17:32:06.626Z,1.87
2023-01-20T17:37:08.252Z,1.83
2023-01-20T17:42:09.853Z,1.90
2023-01-20T17:47:12.183Z,1.84
2023-01-20T17:52:13.851Z,1.83
2023-01-20T17:57:15.507Z,1.80
2023-01-20T18:02:18.735Z,1.83
2023-01-20T18:07:20.427Z,1.83
2023-01-20T18:12:22.228Z,1.82
2023-01-20T18:17:24.061Z,1.81
2023-01-20T18:22:25.790Z,1.81
2023-01-20T18:27:27.590Z,1.84
2023-01-20T18:32:29.451Z,1.73
2023-01-20T18:37:32.466Z,1.76
2023-01-20T18:42:34.079Z,1.82
2023-01-20T18:47:35.881Z,1.80
2023-01-20T18:52:37.783Z,1.76
2023-01-20T18:57:39.600Z,1.73
2023-01-20T19:02:41.341Z,1.77
2023-01-20T19:07:48.521Z,1.74
2023-01-20T19:12:51.799Z,1.74
2023-01-20T19:17:53.478Z,1.68
2023-01-20T19:22:55.106Z,1.69
2023-01-20T19:27:56.879Z,1.64
2023-01-20T19:32:58.487Z,1.73
2023-01-20T19:38:00.211Z,1.69
2023-01-20T19:43:01.865Z,1.58
2023-01-20T19:48:03.947Z,1.67
2023-01-20T19:53:05.564Z,1.62
2023-01-20T19:58:07.160Z,1.57
2023-01-20T20:03:08.976Z,1.61
2023-01-20T20:08:10.580Z,1.59
2023-01-20T20:13:12.213Z,1.58
2023-01-20T20:18:13.896Z,1.58
2023-01-20T20:23:17.881Z,1.56
2023-01-20T20:28:19.788Z,1.49
2023-01-20T20:33:23.170Z,1.55
2023-01-20T20:38:25.030Z,1.47
2023-01-20T20:43:28.019Z,1.45
2023-01-20T20:48:30.372Z,1.42
2023-01-20T20:53:32.179Z,1.44
2023-01-20T20:58:34.475Z,1.37
2023-01-20T21:03:36.092Z,1.35
2023-01-20T21:08:39.125Z,1.30
2023-01-20T21:13:42.909Z,1.27
2023-01-20T21:18:44.523Z,1.22
2023-01-20T21:23:52.060Z,1.22
2023-01-20T21:28:54.061Z,1.11
2023-01-20T21:33:59.440Z,1.08
2023-01-20T21:39:01.164Z,1.01
2023-01-20T21:44:21.330Z,0.97
2023-01-20T21:49:41.782Z,0.95
2023-01-20T21:54:45.128Z,0.88
2023-01-20T21:59:47.160Z,0.85
2023-01-20T22:04:48.838Z,0.74
2023-01-20T22:09:50.655Z,0.62
2023-01-20T22:14:52.477Z,0.64
2023-01-20T22:19:54.486Z,0.57
2023-01-20T22:24:56.383Z,0.54
2023-01-20T22:29:58.183Z,0.63
2023-01-20T22:34:59.808Z,0.47
2023-01-20T22:40:02.113Z,0.49
2023-01-20T22:45:04.199Z,0.43
2023-01-20T22:50:07.869Z,0.44
2023-01-20T22:55:09.664Z,0.43
2023-01-20T23:00:12.193Z,0.49
2023-01-20T23:05:14.062Z,0.39
2023-01-20T23:10:35.764Z,0.44
2023-01-20T23:15:37.571Z,0.44
2023-01-20T23:20:39.576Z,0.41
2023-01-20T23:25:41.453Z,0.37
2023-01-20T23:30:43.592Z,0.36
2023-01-20T23:35:45.228Z,0.39
2023-01-20T23:40:50.113Z,0.39
2023-01-20T23:45:51.875Z,0.45
2023-01-20T23:50:54.765Z,0.48
2023-01-20T23:56:01.330Z,0.38
